createdAt,value
2017-12-26T00:00:38.819Z,15.00
2017-12-26T00:03:06.787Z,14.90
2017-12-26T00:05:34.635Z,14.90
2017-12-26T00:08:02.469Z,14.80
2017-12-26T00:10:30.287Z,14.90
2017-12-26T00:12:58.092Z,14.80
2017-12-26T00:15:25.902Z,14.90
2017-12-26T00:17:53.763Z,14.80
2017-12-26T00:20:21.626Z,14.80
2017-12-26T00:22:49.435Z,14.80
2017-12-26T00:25:17.991Z,14.80
2017-12-26T00:27:46.692Z,14.70
2017-12-26T00:30:15.286Z,14.70
2017-12-26T00:32:43.885Z,14.80
2017-12-26T00:35:11.708Z,14.80
2017-12-26T00:37:39.527Z,14.80
2017-12-26T00:40:07.308Z,14.70
2017-12-26T00:42:35.111Z,14.70
2017-12-26T00:45:03.773Z,14.80
2017-12-26T00:47:31.543Z,14.80
2017-12-26T00:49:59.368Z,14.80
2017-12-26T00:52:27.239Z,14.80
2017-12-26T00:54:55.073Z,14.70
2017-12-26T00:57:23.660Z,14.80
2017-12-26T00:59:52.231Z,14.80
2017-12-26T01:02:20.003Z,14.70
2017-12-26T01:04:48.553Z,14.80
2017-12-26T01:07:17.119Z,14.70
2017-12-26T01:09:45.042Z,14.70
2017-12-26T01:12:12.987Z,14.70
2017-12-26T01:14:40.845Z,14.70
2017-12-26T01:17:08.642Z,14.70
2017-12-26T01:19:37.197Z,14.70
2017-12-26T01:22:05.010Z,14.70
2017-12-26T01:24:32.841Z,14.60
2017-12-26T01:27:00.667Z,14.60
2017-12-26T01:29:28.465Z,14.60
2017-12-26T01:31:56.319Z,14.60
2017-12-26T01:34:24.210Z,14.60
2017-12-26T01:36:52.853Z,14.60
2017-12-26T01:39:20.672Z,14.60
2017-12-26T01:41:48.475Z,14.60
2017-12-26T01:44:16.320Z,14.60
2017-12-26T01:46:44.165Z,14.60
2017-12-26T01:49:11.998Z,14.60
2017-12-26T01:51:39.907Z,14.60
2017-12-26T01:54:07.710Z,14.60
2017-12-26T01:56:35.536Z,14.60
2017-12-26T01:59:03.450Z,14.50
2017-12-26T02:01:31.263Z,14.50
2017-12-26T02:03:59.052Z,14.50
2017-12-26T02:06:26.850Z,14.50
2017-12-26T02:08:54.731Z,14.50
2017-12-26T02:11:23.316Z,14.60
2017-12-26T02:13:51.145Z,14.60
2017-12-26T02:16:19.007Z,14.50
2017-12-26T02:18:46.799Z,14.40
2017-12-26T02:21:14.712Z,14.40
2017-12-26T02:23:42.498Z,14.40
2017-12-26T02:26:10.400Z,14.30
2017-12-26T02:28:38.300Z,14.40
2017-12-26T02:31:06.098Z,14.40
2017-12-26T02:33:34.035Z,14.40
2017-12-26T02:36:01.837Z,14.40
2017-12-26T02:38:29.681Z,14.40
2017-12-26T02:40:57.537Z,14.40
2017-12-26T02:43:25.347Z,14.40
2017-12-26T02:45:53.196Z,14.50
2017-12-26T02:48:21.026Z,14.40
2017-12-26T02:50:48.844Z,14.50
2017-12-26T02:53:16.715Z,14.40
2017-12-26T02:55:44.518Z,14.50
2017-12-26T02:58:13.150Z,14.40
2017-12-26T03:00:40.993Z,14.40
2017-12-26T03:03:08.842Z,14.40
2017-12-26T03:05:37.405Z,14.40
2017-12-26T03:08:05.963Z,14.40
2017-12-26T03:10:33.811Z,14.30
2017-12-26T03:13:01.702Z,14.40
2017-12-26T03:15:29.620Z,14.40
2017-12-26T03:17:57.483Z,14.40
2017-12-26T03:20:25.297Z,14.40
2017-12-26T03:22:53.179Z,14.30
2017-12-26T03:25:21.761Z,14.30
2017-12-26T03:27:49.593Z,14.30
2017-12-26T03:30:17.389Z,14.30
2017-12-26T03:32:45.215Z,14.30
2017-12-26T03:35:13.067Z,14.30
2017-12-26T03:37:40.926Z,14.30
2017-12-26T03:40:08.787Z,14.30
2017-12-26T03:42:36.660Z,14.20
2017-12-26T03:45:04.516Z,14.20
2017-12-26T03:47:32.337Z,14.20
2017-12-26T03:50:00.176Z,14.20
2017-12-26T03:52:27.996Z,14.20
2017-12-26T03:54:56.605Z,14.30
2017-12-26T03:57:24.441Z,14.20
2017-12-26T03:59:53.084Z,14.30
2017-12-26T04:02:20.889Z,14.20
2017-12-26T04:04:49.448Z,14.20
2017-12-26T04:07:17.351Z,14.20
2017-12-26T04:09:46.003Z,14.20
2017-12-26T04:12:13.894Z,14.20
2017-12-26T04:14:41.728Z,14.30
2017-12-26T04:17:09.652Z,14.20
2017-12-26T04:19:37.456Z,14.20
2017-12-26T04:22:05.307Z,14.20
2017-12-26T04:24:33.117Z,14.20
2017-12-26T04:27:01.739Z,14.20
2017-12-26T04:29:29.552Z,14.10
2017-12-26T04:31:57.359Z,14.10
2017-12-26T04:34:25.250Z,14.10
2017-12-26T04:36:53.069Z,14.10
2017-12-26T04:39:21.667Z,14.10
2017-12-26T04:41:49.544Z,14.10
2017-12-26T04:44:17.362Z,14.10
2017-12-26T04:46:45.196Z,14.10
2017-12-26T04:49:13.017Z,14.10
2017-12-26T04:51:41.649Z,14.00
2017-12-26T04:54:09.498Z,14.00
2017-12-26T04:56:37.318Z,14.00
2017-12-26T04:59:06.114Z,14.00
2017-12-26T05:01:34.673Z,14.00
2017-12-26T05:04:02.485Z,14.00
2017-12-26T05:06:30.277Z,14.00
2017-12-26T05:08:58.100Z,14.00
2017-12-26T05:11:26.713Z,14.00
2017-12-26T05:13:54.500Z,14.00
2017-12-26T05:16:22.373Z,14.00
2017-12-26T05:18:50.259Z,13.90
2017-12-26T05:21:18.837Z,14.00
2017-12-26T05:23:46.677Z,13.90
2017-12-26T05:26:14.483Z,14.00
2017-12-26T05:28:42.293Z,13.90
2017-12-26T05:31:10.159Z,14.00
2017-12-26T05:33:38.082Z,13.90
2017-12-26T05:36:06.664Z,14.00
2017-12-26T05:38:35.244Z,13.90
2017-12-26T05:41:03.061Z,13.90
2017-12-26T05:43:30.848Z,14.00
2017-12-26T05:45:58.655Z,13.90
2017-12-26T05:48:27.239Z,13.90
2017-12-26T05:50:55.821Z,13.90
2017-12-26T05:53:24.460Z,13.90
2017-12-26T05:55:52.344Z,13.80
2017-12-26T05:58:20.933Z,13.80
2017-12-26T06:00:48.746Z,13.80
2017-12-26T06:03:16.553Z,13.80
2017-12-26T06:05:44.365Z,13.80
2017-12-26T06:08:12.240Z,13.80
2017-12-26T06:10:40.054Z,13.80
2017-12-26T06:13:07.982Z,13.80
2017-12-26T06:15:36.540Z,13.80
2017-12-26T06:18:04.324Z,13.80
2017-12-26T06:20:32.128Z,13.80
2017-12-26T06:22:59.975Z,13.80
2017-12-26T06:25:27.858Z,13.80
2017-12-26T06:27:55.747Z,13.80
2017-12-26T06:30:24.339Z,13.80
2017-12-26T06:32:53.010Z,13.80
2017-12-26T06:35:21.568Z,13.80
2017-12-26T06:37:49.508Z,13.80
2017-12-26T06:40:17.372Z,13.80
2017-12-26T06:42:45.196Z,13.80
2017-12-26T06:45:13.781Z,13.80
2017-12-26T06:47:42.328Z,13.70
2017-12-26T06:50:10.157Z,13.70
2017-12-26T06:52:37.968Z,13.80
2017-12-26T06:55:05.786Z,13.80
2017-12-26T06:57:33.620Z,13.80
2017-12-26T07:00:02.210Z,13.80
2017-12-26T07:02:30.762Z,13.80
2017-12-26T07:04:58.685Z,13.70
2017-12-26T07:07:26.539Z,13.80
2017-12-26T07:09:54.428Z,13.70
2017-12-26T07:12:22.245Z,13.60
2017-12-26T07:14:50.096Z,13.60
2017-12-26T07:17:17.900Z,13.60
2017-12-26T07:19:45.769Z,13.60
2017-12-26T07:22:19.279Z,13.70
2017-12-26T07:24:47.230Z,13.60
2017-12-26T07:27:15.089Z,13.60
2017-12-26T07:29:43.659Z,13.70
2017-12-26T07:32:12.236Z,13.70
2017-12-26T07:34:40.117Z,13.60
2017-12-26T07:37:08.749Z,13.60
2017-12-26T07:39:36.534Z,13.60
2017-12-26T07:42:04.343Z,13.70
2017-12-26T07:44:32.909Z,13.60
2017-12-26T07:47:01.464Z,13.60
2017-12-26T07:49:29.272Z,13.70
2017-12-26T07:51:57.877Z,13.70
2017-12-26T07:54:25.685Z,13.60
2017-12-26T07:56:53.496Z,13.70
2017-12-26T07:59:21.304Z,13.70
2017-12-26T08:01:49.097Z,13.70
2017-12-26T08:04:17.650Z,13.60
2017-12-26T08:06:45.589Z,13.60
2017-12-26T08:09:15.230Z,13.60
2017-12-26T08:11:43.206Z,13.70
2017-12-26T08:14:11.092Z,13.60
2017-12-26T08:16:39.723Z,13.60
2017-12-26T08:19:07.657Z,13.60
2017-12-26T08:21:35.488Z,13.60
2017-12-26T08:24:03.333Z,13.70
2017-12-26T08:26:31.167Z,13.70
2017-12-26T08:28:58.969Z,13.80
2017-12-26T08:31:26.785Z,13.70
2017-12-26T08:33:55.362Z,13.70
2017-12-26T08:36:23.979Z,13.70
2017-12-26T08:38:51.895Z,13.70
2017-12-26T08:41:20.513Z,13.70
2017-12-26T08:43:48.326Z,13.70
2017-12-26T08:46:16.141Z,13.70
2017-12-26T08:48:43.943Z,13.80
2017-12-26T08:51:11.716Z,13.80
2017-12-26T08:53:39.566Z,13.80
2017-12-26T08:56:07.417Z,13.80
2017-12-26T08:58:35.240Z,13.80
2017-12-26T09:01:03.829Z,13.80
2017-12-26T09:03:32.396Z,13.90
2017-12-26T09:06:00.225Z,13.80
2017-12-26T09:08:27.996Z,13.90
2017-12-26T09:10:56.049Z,14.00
2017-12-26T09:13:23.847Z,14.10
2017-12-26T09:15:51.715Z,14.10
2017-12-26T09:18:19.627Z,14.10
2017-12-26T09:20:48.237Z,14.10
2017-12-26T09:23:16.113Z,14.10
2017-12-26T09:25:43.911Z,14.20
2017-12-26T09:28:11.726Z,14.30
2017-12-26T09:30:39.564Z,14.30
2017-12-26T09:33:08.196Z,14.50
2017-12-26T09:35:36.016Z,14.50
2017-12-26T09:38:04.600Z,14.70
2017-12-26T09:40:32.391Z,14.70
2017-12-26T09:43:00.220Z,14.80
2017-12-26T09:45:28.844Z,15.00
2017-12-26T09:47:56.662Z,15.00
2017-12-26T09:50:25.232Z,15.10
2017-12-26T09:52:53.162Z,15.10
2017-12-26T09:55:20.962Z,15.20
2017-12-26T09:57:48.812Z,15.20
2017-12-26T10:00:16.705Z,15.30
2017-12-26T10:02:44.502Z,15.40
2017-12-26T10:05:12.326Z,15.40
2017-12-26T10:07:40.900Z,15.50
2017-12-26T10:10:08.725Z,15.50
2017-12-26T10:12:36.553Z,15.50
2017-12-26T10:15:05.146Z,15.50
2017-12-26T10:17:33.705Z,15.60
2017-12-26T10:20:01.512Z,15.50
2017-12-26T10:22:29.324Z,15.60
2017-12-26T10:24:57.103Z,15.60
2017-12-26T10:27:24.893Z,15.60
2017-12-26T10:29:53.677Z,15.70
2017-12-26T10:32:22.252Z,15.80
2017-12-26T10:34:50.828Z,15.80
2017-12-26T10:37:18.681Z,15.90
2017-12-26T10:39:46.500Z,15.90
2017-12-26T10:42:14.289Z,16.00
2017-12-26T10:44:42.082Z,16.10
2017-12-26T10:47:09.903Z,16.20
2017-12-26T10:49:37.698Z,16.20
2017-12-26T10:52:05.692Z,16.20
2017-12-26T10:54:34.320Z,16.40
2017-12-26T10:57:02.205Z,16.30
2017-12-26T10:59:30.143Z,16.40
2017-12-26T11:01:58.147Z,16.50
2017-12-26T11:04:25.974Z,16.60
2017-12-26T11:06:53.915Z,16.60
2017-12-26T11:09:21.739Z,16.70
2017-12-26T11:11:49.607Z,16.80
2017-12-26T11:14:17.449Z,16.80
2017-12-26T11:16:45.361Z,16.90
2017-12-26T11:19:13.257Z,16.90
2017-12-26T11:21:41.826Z,17.00
2017-12-26T11:24:10.440Z,17.00
2017-12-26T11:26:38.309Z,17.00
2017-12-26T11:29:06.881Z,17.00
2017-12-26T11:31:34.703Z,17.00
2017-12-26T11:34:02.530Z,17.10
2017-12-26T11:36:31.193Z,17.20
2017-12-26T11:38:58.983Z,17.20
2017-12-26T11:41:26.867Z,17.30
2017-12-26T11:43:54.653Z,17.40
2017-12-26T11:46:22.458Z,17.30
2017-12-26T11:48:50.409Z,17.40
2017-12-26T11:51:18.223Z,17.40
2017-12-26T11:53:46.088Z,17.40
2017-12-26T11:56:13.883Z,17.40
2017-12-26T11:58:41.677Z,17.40
2017-12-26T12:01:10.319Z,17.40
2017-12-26T12:03:38.177Z,17.40
2017-12-26T12:06:06.034Z,17.40
2017-12-26T12:08:33.860Z,17.50
2017-12-26T12:11:01.672Z,17.50
2017-12-26T12:13:29.620Z,17.40
2017-12-26T12:15:57.501Z,17.40
2017-12-26T12:18:25.385Z,17.40
2017-12-26T12:20:53.249Z,17.50
2017-12-26T12:23:21.053Z,17.50
2017-12-26T12:25:49.608Z,17.50
2017-12-26T12:28:17.459Z,17.50
2017-12-26T12:30:45.289Z,17.50
2017-12-26T12:33:13.143Z,17.40
2017-12-26T12:35:40.954Z,17.40
2017-12-26T12:38:08.807Z,17.30
2017-12-26T12:40:36.674Z,17.30
2017-12-26T12:43:04.478Z,17.30
2017-12-26T12:45:33.046Z,17.40
2017-12-26T12:48:00.927Z,17.40
2017-12-26T12:50:28.712Z,17.40
2017-12-26T12:52:56.657Z,17.50
2017-12-26T12:55:25.814Z,17.60
2017-12-26T12:57:53.639Z,17.60
2017-12-26T13:00:22.200Z,17.70
2017-12-26T13:02:49.994Z,17.70
2017-12-26T13:05:17.807Z,17.70
2017-12-26T13:07:45.663Z,17.80
2017-12-26T13:10:13.549Z,17.90
2017-12-26T13:12:41.352Z,17.90
2017-12-26T13:15:09.169Z,17.90
2017-12-26T13:17:37.060Z,18.00
2017-12-26T13:20:04.881Z,17.90
2017-12-26T13:22:32.746Z,17.80
2017-12-26T13:25:00.571Z,17.80
2017-12-26T13:27:29.141Z,17.70
2017-12-26T13:29:57.725Z,17.60
2017-12-26T13:32:25.567Z,17.60
2017-12-26T13:34:53.385Z,17.60
2017-12-26T13:37:21.185Z,17.50
2017-12-26T13:39:49.060Z,17.40
2017-12-26T13:42:16.864Z,17.30
2017-12-26T13:44:45.546Z,17.20
2017-12-26T13:47:14.135Z,17.20
2017-12-26T13:49:42.741Z,17.20
2017-12-26T13:52:10.540Z,17.20
2017-12-26T13:54:38.344Z,17.30
2017-12-26T13:57:06.995Z,17.30
2017-12-26T13:59:34.860Z,17.30
2017-12-26T14:02:02.687Z,17.40
2017-12-26T14:04:30.566Z,17.40
2017-12-26T14:06:58.396Z,17.40
2017-12-26T14:09:26.960Z,17.40
2017-12-26T14:11:54.835Z,17.40
2017-12-26T14:14:23.434Z,17.50
2017-12-26T14:16:51.240Z,17.50
2017-12-26T14:19:19.097Z,17.50
2017-12-26T14:21:46.929Z,17.40
2017-12-26T14:24:15.544Z,17.40
2017-12-26T14:26:43.406Z,17.40
2017-12-26T14:29:11.240Z,17.40
2017-12-26T14:31:39.894Z,17.40
2017-12-26T14:34:07.740Z,17.30
2017-12-26T14:36:35.544Z,17.30
2017-12-26T14:39:04.293Z,17.30
2017-12-26T14:41:32.116Z,17.30
2017-12-26T14:43:59.931Z,17.30
2017-12-26T14:46:27.909Z,17.20
2017-12-26T14:48:55.739Z,17.20
2017-12-26T14:51:23.580Z,17.20
2017-12-26T14:53:52.161Z,17.10
2017-12-26T14:56:20.820Z,17.10
2017-12-26T14:58:49.530Z,17.10
2017-12-26T15:01:18.131Z,17.10
2017-12-26T15:03:45.921Z,17.10
2017-12-26T15:06:13.768Z,17.00
2017-12-26T15:08:41.625Z,17.00
2017-12-26T15:11:09.417Z,17.00
2017-12-26T15:13:37.243Z,16.90
2017-12-26T15:16:05.139Z,16.90
2017-12-26T15:18:32.977Z,16.90
2017-12-26T15:21:00.770Z,16.90
2017-12-26T15:23:28.604Z,16.90
2017-12-26T15:25:57.246Z,16.90
2017-12-26T15:28:25.107Z,16.90
2017-12-26T15:30:52.974Z,16.90
2017-12-26T15:33:20.859Z,16.80
2017-12-26T15:35:49.585Z,16.80
2017-12-26T15:38:17.415Z,16.80
2017-12-26T15:40:45.965Z,16.70
2017-12-26T15:45:56.597Z,16.70
2017-12-26T15:48:24.417Z,16.80
2017-12-26T15:50:52.314Z,16.80
2017-12-26T15:53:20.167Z,16.70
2017-12-26T15:55:48.042Z,16.70
2017-12-26T15:58:15.854Z,16.80
2017-12-26T16:00:43.693Z,16.70
2017-12-26T16:03:12.279Z,16.70
2017-12-26T16:05:40.160Z,16.70
2017-12-26T16:08:07.968Z,16.70
2017-12-26T16:10:35.893Z,16.60
2017-12-26T16:13:04.519Z,16.60
2017-12-26T16:15:32.378Z,16.60
2017-12-26T16:18:00.200Z,16.60
2017-12-26T16:20:28.032Z,16.60
2017-12-26T16:22:56.015Z,16.50
2017-12-26T16:25:23.807Z,16.50
2017-12-26T16:27:51.628Z,16.50
2017-12-26T16:30:19.448Z,16.50
2017-12-26T16:32:47.308Z,16.50
2017-12-26T16:35:15.108Z,16.50
2017-12-26T16:37:43.004Z,16.40
2017-12-26T16:40:11.610Z,16.50
2017-12-26T16:42:39.421Z,16.40
2017-12-26T16:45:07.293Z,16.50
2017-12-26T16:47:35.117Z,16.50
2017-12-26T16:50:02.930Z,16.50
2017-12-26T16:52:30.722Z,16.50
2017-12-26T16:54:59.279Z,16.40
2017-12-26T16:57:28.503Z,16.40
2017-12-26T16:59:57.164Z,16.40
2017-12-26T17:02:24.968Z,16.40
2017-12-26T17:04:52.812Z,16.40
2017-12-26T17:07:21.376Z,16.40
2017-12-26T17:09:50.005Z,16.30
2017-12-26T17:12:17.896Z,16.30
2017-12-26T17:14:45.743Z,16.30
2017-12-26T17:17:13.630Z,16.40
2017-12-26T17:19:41.480Z,16.30
2017-12-26T17:22:09.295Z,16.30
2017-12-26T17:24:37.202Z,16.30
2017-12-26T17:27:05.029Z,16.30
2017-12-26T17:29:32.856Z,16.30
2017-12-26T17:32:00.671Z,16.30
2017-12-26T17:34:29.309Z,16.30
2017-12-26T17:36:57.159Z,16.30
2017-12-26T17:39:25.091Z,16.20
2017-12-26T17:41:53.673Z,16.20
2017-12-26T17:44:22.297Z,16.20
2017-12-26T17:46:50.259Z,16.20
2017-12-26T17:49:18.183Z,16.30
2017-12-26T17:51:46.835Z,16.20
2017-12-26T17:54:14.720Z,16.20
2017-12-26T17:56:42.650Z,16.20
2017-12-26T17:59:10.603Z,16.20
2017-12-26T18:01:38.391Z,16.20
2017-12-26T18:04:06.271Z,16.20
2017-12-26T18:06:34.147Z,16.20
2017-12-26T18:09:02.011Z,16.20
2017-12-26T18:11:29.853Z,16.10
2017-12-26T18:13:57.703Z,16.10
2017-12-26T18:16:25.527Z,16.20
2017-12-26T18:18:53.340Z,16.20
2017-12-26T18:21:21.226Z,16.20
2017-12-26T18:23:49.178Z,16.10
2017-12-26T18:26:17.028Z,16.10
2017-12-26T18:31:17.533Z,16.10
2017-12-26T18:33:45.466Z,16.10
2017-12-26T18:36:13.368Z,16.00
2017-12-26T18:38:41.200Z,16.00
2017-12-26T18:41:09.083Z,16.00
2017-12-26T18:43:37.003Z,16.00
2017-12-26T18:46:04.957Z,15.90
2017-12-26T18:48:32.799Z,16.00
2017-12-26T18:51:00.660Z,16.00
2017-12-26T18:53:28.609Z,16.00
2017-12-26T18:55:56.552Z,16.00
2017-12-26T18:58:24.507Z,16.00
2017-12-26T19:00:52.354Z,16.00
2017-12-26T19:03:20.163Z,16.00
2017-12-26T19:05:48.010Z,16.00
2017-12-26T19:08:15.971Z,16.00
2017-12-26T19:10:43.824Z,16.00
2017-12-26T19:13:12.395Z,15.90
2017-12-26T19:15:41.004Z,16.00
2017-12-26T19:18:08.895Z,16.00
2017-12-26T19:20:36.830Z,16.00
2017-12-26T19:23:04.639Z,16.00
2017-12-26T19:25:32.454Z,15.90
2017-12-26T19:28:01.033Z,15.90
2017-12-26T19:30:28.862Z,15.90
2017-12-26T19:32:56.716Z,15.90
2017-12-26T19:35:24.621Z,15.90
2017-12-26T19:37:53.210Z,15.80
2017-12-26T19:40:21.777Z,15.80
2017-12-26T19:42:49.662Z,15.80
2017-12-26T19:45:17.508Z,15.80
2017-12-26T19:47:45.331Z,15.80
2017-12-26T19:50:13.142Z,15.80
2017-12-26T19:52:41.045Z,15.80
2017-12-26T19:55:09.640Z,15.80
2017-12-26T19:57:37.587Z,15.70
2017-12-26T20:00:05.478Z,15.80
2017-12-26T20:02:33.300Z,15.80
2017-12-26T20:05:01.137Z,15.70
2017-12-26T20:07:29.031Z,15.70
2017-12-26T20:09:57.601Z,15.70
2017-12-26T20:12:25.388Z,15.60
2017-12-26T20:14:53.953Z,15.60
2017-12-26T20:17:21.943Z,15.60
2017-12-26T20:19:50.544Z,15.60
2017-12-26T20:22:18.408Z,15.60
2017-12-26T20:24:46.235Z,15.60
2017-12-26T20:27:14.102Z,15.60
2017-12-26T20:29:42.001Z,15.60
2017-12-26T20:32:10.580Z,15.60
2017-12-26T20:34:39.227Z,15.50
2017-12-26T20:37:07.100Z,15.40
2017-12-26T20:39:34.991Z,15.50
2017-12-26T20:42:02.950Z,15.50
2017-12-26T20:44:30.783Z,15.50
2017-12-26T20:46:59.449Z,15.50
2017-12-26T20:49:27.324Z,15.50
2017-12-26T20:51:55.203Z,15.50
2017-12-26T20:54:23.034Z,15.50
2017-12-26T20:56:50.846Z,15.50
2017-12-26T20:59:18.623Z,15.50
2017-12-26T21:01:46.460Z,15.50
2017-12-26T21:04:14.263Z,15.50
2017-12-26T21:06:42.218Z,15.40
2017-12-26T21:09:10.131Z,15.40
2017-12-26T21:11:38.053Z,15.40
2017-12-26T21:14:05.863Z,15.40
2017-12-26T21:16:33.742Z,15.30
2017-12-26T21:19:01.679Z,15.40
2017-12-26T21:21:29.525Z,15.40
2017-12-26T21:23:57.339Z,15.40
2017-12-26T21:26:25.187Z,15.40
2017-12-26T21:28:53.046Z,15.30
2017-12-26T21:33:56.048Z,15.30
2017-12-26T21:36:24.035Z,15.30
2017-12-26T21:38:51.852Z,15.30
2017-12-26T21:41:20.240Z,15.20
2017-12-26T21:43:48.996Z,15.20
2017-12-26T21:46:17.154Z,15.20
2017-12-26T21:48:45.081Z,15.20
2017-12-26T21:51:13.893Z,15.20
2017-12-26T21:53:43.324Z,15.20
2017-12-26T21:56:11.155Z,15.20
2017-12-26T21:58:39.000Z,15.10
2017-12-26T22:01:07.711Z,15.10
2017-12-26T22:03:35.527Z,15.10
2017-12-26T22:06:03.363Z,15.10
2017-12-26T22:08:31.193Z,15.10
2017-12-26T22:11:03.174Z,15.10
2017-12-26T22:13:33.767Z,15.10
2017-12-26T22:16:01.584Z,15.20
2017-12-26T22:18:29.444Z,15.10
2017-12-26T22:20:57.409Z,15.20
2017-12-26T22:23:25.262Z,15.20
2017-12-26T22:25:53.088Z,15.20
2017-12-26T22:28:21.011Z,15.20
2017-12-26T22:30:48.827Z,15.20
2017-12-26T22:33:16.699Z,15.20
2017-12-26T22:35:45.269Z,15.20
2017-12-26T22:38:13.052Z,15.20
2017-12-26T22:40:41.637Z,15.20
2017-12-26T22:43:09.487Z,15.20
2017-12-26T22:45:38.044Z,15.10
2017-12-26T22:48:05.883Z,15.10
2017-12-26T22:50:33.753Z,15.10
2017-12-26T22:53:01.681Z,15.10
2017-12-26T22:55:30.283Z,15.00
2017-12-26T22:57:58.160Z,15.00
2017-12-26T23:00:26.651Z,15.00
2017-12-26T23:02:54.553Z,15.00
2017-12-26T23:05:22.459Z,15.00
2017-12-26T23:07:50.387Z,15.00
2017-12-26T23:10:18.179Z,15.00
2017-12-26T23:12:46.788Z,15.00
2017-12-26T23:15:20.415Z,15.00
2017-12-26T23:17:53.792Z,15.00
2017-12-26T23:20:27.331Z,15.00
2017-12-26T23:23:00.727Z,15.00
2017-12-26T23:25:34.415Z,15.00
2017-12-26T23:28:08.068Z,15.00
2017-12-26T23:30:42.352Z,14.90
2017-12-26T23:33:15.826Z,14.90
2017-12-26T23:35:49.199Z,14.90
2017-12-26T23:38:22.719Z,14.90
2017-12-26T23:40:56.259Z,14.90
2017-12-26T23:43:30.403Z,14.80
2017-12-26T23:46:03.966Z,14.90
2017-12-26T23:48:37.400Z,14.80
2017-12-26T23:51:10.844Z,14.90
2017-12-26T23:53:44.275Z,14.80
2017-12-26T23:56:18.485Z,14.80
2017-12-26T23:58:52.657Z,14.90
